sensor_id;sensor_type;location;lat;lon;timestamp;pressure;altitude;pressure_sealevel;temperature;humidity
36222;BME280;22266;52.340;4.962;2023-03-16T00:00:45;101698.31;;;6.85;56.10
36222;BME280;22266;52.340;4.962;2023-03-16T00:03:13;101684.50;;;6.80;56.48
36222;BME280;22266;52.340;4.962;2023-03-16T00:05:48;101679.72;;;6.84;56.49
36222;BME280;22266;52.340;4.962;2023-03-16T00:08:16;101682.25;;;6.85;56.27
36222;BME280;22266;52.340;4.962;2023-03-16T00:10:43;101677.19;;;6.82;56.21
36222;BME280;22266;52.340;4.962;2023-03-16T00:13:14;101678.03;;;6.83;56.55
36222;BME280;22266;52.340;4.962;2023-03-16T00:15:47;101680.53;;;6.84;56.54
36222;BME280;22266;52.340;4.962;2023-03-16T00:18:15;101664.66;;;6.83;56.94
36222;BME280;22266;52.340;4.962;2023-03-16T00:20:41;101659.00;;;6.86;56.53
36222;BME280;22266;52.340;4.962;2023-03-16T00:23:08;101670.53;;;6.86;57.17
36222;BME280;22266;52.340;4.962;2023-03-16T00:25:34;101661.72;;;6.76;56.90
36222;BME280;22266;52.340;4.962;2023-03-16T00:28:01;101649.94;;;6.69;56.21
36222;BME280;22266;52.340;4.962;2023-03-16T00:30:29;101650.63;;;6.71;56.95
36222;BME280;22266;52.340;4.962;2023-03-16T00:32:58;101649.22;;;6.77;57.18
36222;BME280;22266;52.340;4.962;2023-03-16T00:35:24;101653.69;;;6.76;56.87
36222;BME280;22266;52.340;4.962;2023-03-16T00:37:51;101649.34;;;6.75;57.02
36222;BME280;22266;52.340;4.962;2023-03-16T00:40:17;101652.00;;;6.75;56.53
36222;BME280;22266;52.340;4.962;2023-03-16T00:42:44;101638.34;;;6.78;57.22
36222;BME280;22266;52.340;4.962;2023-03-16T00:45:10;101636.34;;;6.80;56.89
36222;BME280;22266;52.340;4.962;2023-03-16T00:47:38;101633.81;;;6.79;57.55
36222;BME280;22266;52.340;4.962;2023-03-16T00:50:05;101627.03;;;6.84;56.84
36222;BME280;22266;52.340;4.962;2023-03-16T00:52:31;101625.81;;;6.79;56.91
36222;BME280;22266;52.340;4.962;2023-03-16T00:55:00;101622.97;;;6.80;57.78
36222;BME280;22266;52.340;4.962;2023-03-16T00:57:29;101625.50;;;6.82;57.47
36222;BME280;22266;52.340;4.962;2023-03-16T00:59:57;101618.78;;;6.78;57.36
36222;BME280;22266;52.340;4.962;2023-03-16T01:02:25;101609.38;;;6.74;57.57
36222;BME280;22266;52.340;4.962;2023-03-16T01:04:52;101615.56;;;6.74;57.90
36222;BME280;22266;52.340;4.962;2023-03-16T01:07:20;101618.06;;;6.76;57.50
36222;BME280;22266;52.340;4.962;2023-03-16T01:09:47;101611.59;;;6.78;57.90
36222;BME280;22266;52.340;4.962;2023-03-16T01:12:16;101613.97;;;6.81;58.19
36222;BME280;22266;52.340;4.962;2023-03-16T01:14:43;101607.63;;;6.82;58.10
36222;BME280;22266;52.340;4.962;2023-03-16T01:17:13;101596.44;;;6.87;58.30
36222;BME280;22266;52.340;4.962;2023-03-16T01:19:41;101597.44;;;6.86;58.31
36222;BME280;22266;52.340;4.962;2023-03-16T01:22:10;101591.25;;;6.85;58.08
36222;BME280;22266;52.340;4.962;2023-03-16T01:24:38;101590.72;;;6.82;58.65
36222;BME280;22266;52.340;4.962;2023-03-16T01:27:06;101587.75;;;6.85;58.36
36222;BME280;22266;52.340;4.962;2023-03-16T01:29:33;101593.78;;;6.87;58.71
36222;BME280;22266;52.340;4.962;2023-03-16T01:32:00;101579.56;;;6.86;58.52
36222;BME280;22266;52.340;4.962;2023-03-16T01:34:27;101578.72;;;6.86;58.46
36222;BME280;22266;52.340;4.962;2023-03-16T01:36:54;101578.19;;;6.82;58.94
36222;BME280;22266;52.340;4.962;2023-03-16T01:39:25;101567.78;;;6.79;58.83
36222;BME280;22266;52.340;4.962;2023-03-16T01:41:52;101567.09;;;6.77;59.25
36222;BME280;22266;52.340;4.962;2023-03-16T01:44:22;101560.91;;;6.77;59.59
36222;BME280;22266;52.340;4.962;2023-03-16T01:46:50;101553.84;;;6.76;59.41
36222;BME280;22266;52.340;4.962;2023-03-16T01:49:20;101547.88;;;6.64;59.40
36222;BME280;22266;52.340;4.962;2023-03-16T01:55:08;101544.78;;;6.68;59.61
36222;BME280;22266;52.340;4.962;2023-03-16T01:57:19;101551.63;;;6.71;59.72
36222;BME280;22266;52.340;4.962;2023-03-16T01:59:56;101544.34;;;6.63;60.11
36222;BME280;22266;52.340;4.962;2023-03-16T02:02:28;101539.56;;;6.67;59.85
36222;BME280;22266;52.340;4.962;2023-03-16T02:05:03;101542.94;;;6.69;60.13
36222;BME280;22266;52.340;4.962;2023-03-16T02:07:39;101535.59;;;6.71;59.89
36222;BME280;22266;52.340;4.962;2023-03-16T02:10:08;101518.53;;;6.72;60.36
36222;BME280;22266;52.340;4.962;2023-03-16T02:12:37;101522.13;;;6.63;60.13
36222;BME280;22266;52.340;4.962;2023-03-16T02:15:05;101518.44;;;6.64;60.96
36222;BME280;22266;52.340;4.962;2023-03-16T02:17:34;101521.81;;;6.66;61.46
36222;BME280;22266;52.340;4.962;2023-03-16T02:20:32;101515.25;;;6.60;61.03
36222;BME280;22266;52.340;4.962;2023-03-16T02:23:03;101514.56;;;6.58;61.05
36222;BME280;22266;52.340;4.962;2023-03-16T02:25:40;101517.41;;;6.57;61.36
36222;BME280;22266;52.340;4.962;2023-03-16T02:28:21;101521.81;;;6.66;61.55
36222;BME280;22266;52.340;4.962;2023-03-16T02:30:52;101517.16;;;6.68;61.96
36222;BME280;22266;52.340;4.962;2023-03-16T02:33:20;101514.38;;;6.60;61.29
36222;BME280;22266;52.340;4.962;2023-03-16T02:35:46;101515.09;;;6.62;62.15
36222;BME280;22266;52.340;4.962;2023-03-16T02:38:13;101508.97;;;6.52;62.03
36222;BME280;22266;52.340;4.962;2023-03-16T02:40:56;101510.66;;;6.53;63.12
36222;BME280;22266;52.340;4.962;2023-03-16T02:43:27;101508.38;;;6.58;63.07
36222;BME280;22266;52.340;4.962;2023-03-16T02:46:24;101507.22;;;6.60;62.65
36222;BME280;22266;52.340;4.962;2023-03-16T02:49:06;101504.84;;;6.57;62.58
36222;BME280;22266;52.340;4.962;2023-03-16T02:51:35;101502.78;;;6.51;63.21
36222;BME280;22266;52.340;4.962;2023-03-16T02:54:01;101508.81;;;6.53;63.40
36222;BME280;22266;52.340;4.962;2023-03-16T02:56:31;101505.06;;;6.46;63.23
36222;BME280;22266;52.340;4.962;2023-03-16T02:58:57;101508.56;;;6.47;64.00
36222;BME280;22266;52.340;4.962;2023-03-16T03:01:25;101496.59;;;6.51;63.98
36222;BME280;22266;52.340;4.962;2023-03-16T03:03:51;101494.75;;;6.51;64.59
36222;BME280;22266;52.340;4.962;2023-03-16T03:06:18;101499.63;;;6.56;64.75
36222;BME280;22266;52.340;4.962;2023-03-16T03:08:44;101496.00;;;6.57;64.51
36222;BME280;22266;52.340;4.962;2023-03-16T03:11:11;101496.13;;;6.55;64.43
36222;BME280;22266;52.340;4.962;2023-03-16T03:13:37;101493.16;;;6.58;64.54
36222;BME280;22266;52.340;4.962;2023-03-16T03:16:09;101482.75;;;6.55;64.61
36222;BME280;22266;52.340;4.962;2023-03-16T03:18:36;101482.91;;;6.54;65.51
36222;BME280;22266;52.340;4.962;2023-03-16T03:21:03;101482.09;;;6.53;65.56
36222;BME280;22266;52.340;4.962;2023-03-16T03:23:32;101477.03;;;6.50;65.62
36222;BME280;22266;52.340;4.962;2023-03-16T03:26:00;101488.47;;;6.42;66.54
36222;BME280;22266;52.340;4.962;2023-03-16T03:28:29;101474.94;;;6.44;66.62
36222;BME280;22266;52.340;4.962;2023-03-16T03:30:56;101471.31;;;6.45;66.65
36222;BME280;22266;52.340;4.962;2023-03-16T03:33:22;101467.91;;;6.43;66.86
36222;BME280;22266;52.340;4.962;2023-03-16T03:35:57;101468.09;;;6.41;67.52
36222;BME280;22266;52.340;4.962;2023-03-16T03:38:27;101469.47;;;6.46;67.94
36222;BME280;22266;52.340;4.962;2023-03-16T03:40:54;101464.16;;;6.36;67.82
36222;BME280;22266;52.340;4.962;2023-03-16T03:43:27;101447.75;;;6.31;68.77
36222;BME280;22266;52.340;4.962;2023-03-16T03:46:02;101456.16;;;6.36;68.46
36222;BME280;22266;52.340;4.962;2023-03-16T03:48:32;101458.16;;;6.34;68.78
36222;BME280;22266;52.340;4.962;2023-03-16T03:51:01;101454.34;;;6.36;68.68
36222;BME280;22266;52.340;4.962;2023-03-16T03:53:50;101457.84;;;6.37;68.19
36222;BME280;22266;52.340;4.962;2023-03-16T03:56:22;101450.03;;;6.26;68.85
36222;BME280;22266;52.340;4.962;2023-03-16T03:58:49;101448.50;;;6.23;68.99
36222;BME280;22266;52.340;4.962;2023-03-16T04:01:26;101459.72;;;6.27;69.25
36222;BME280;22266;52.340;4.962;2023-03-16T04:03:52;101445.22;;;6.29;69.31
36222;BME280;22266;52.340;4.962;2023-03-16T04:06:19;101442.47;;;6.21;69.66
36222;BME280;22266;52.340;4.962;2023-03-16T04:08:45;101438.81;;;6.22;69.63
36222;BME280;22266;52.340;4.962;2023-03-16T04:11:16;101445.16;;;6.21;70.01
36222;BME280;22266;52.340;4.962;2023-03-16T04:13:43;101441.47;;;6.22;69.50
36222;BME280;22266;52.340;4.962;2023-03-16T04:16:10;101441.31;;;6.24;69.74
36222;BME280;22266;52.340;4.962;2023-03-16T04:18:41;101432.88;;;6.28;69.75
36222;BME280;22266;52.340;4.962;2023-03-16T04:21:13;101427.81;;;6.25;69.66
36222;BME280;22266;52.340;4.962;2023-03-16T04:23:41;101424.97;;;6.27;69.98
36222;BME280;22266;52.340;4.962;2023-03-16T04:26:08;101423.13;;;6.27;69.94
36222;BME280;22266;52.340;4.962;2023-03-16T04:28:35;101423.75;;;6.21;69.52
36222;BME280;22266;52.340;4.962;2023-03-16T04:31:03;101411.06;;;6.23;69.78
36222;BME280;22266;52.340;4.962;2023-03-16T04:33:39;101418.03;;;6.16;70.12
36222;BME280;22266;52.340;4.962;2023-03-16T04:36:07;101404.97;;;6.13;70.15
36222;BME280;22266;52.340;4.962;2023-03-16T04:38:36;101402.28;;;6.13;69.77
36222;BME280;22266;52.340;4.962;2023-03-16T04:41:04;101401.59;;;6.11;70.61
36222;BME280;22266;52.340;4.962;2023-03-16T04:43:35;101400.63;;;6.12;70.66
36222;BME280;22266;52.340;4.962;2023-03-16T04:46:15;101402.88;;;6.07;71.07
36222;BME280;22266;52.340;4.962;2023-03-16T04:48:41;101406.25;;;6.09;70.69
36222;BME280;22266;52.340;4.962;2023-03-16T04:51:08;101406.41;;;6.07;70.89
36222;BME280;22266;52.340;4.962;2023-03-16T04:53:40;101409.31;;;6.14;71.31
36222;BME280;22266;52.340;4.962;2023-03-16T04:56:13;101406.19;;;6.18;70.38
36222;BME280;22266;52.340;4.962;2023-03-16T04:58:50;101409.94;;;6.26;70.37
36222;BME280;22266;52.340;4.962;2023-03-16T05:01:18;101409.22;;;6.24;70.32
36222;BME280;22266;52.340;4.962;2023-03-16T05:03:46;101406.72;;;6.22;70.73
36222;BME280;22266;52.340;4.962;2023-03-16T05:06:12;101411.41;;;6.20;71.26
36222;BME280;22266;52.340;4.962;2023-03-16T05:08:40;101412.06;;;6.22;71.55
36222;BME280;22266;52.340;4.962;2023-03-16T05:11:07;101412.53;;;6.17;71.29
36222;BME280;22266;52.340;4.962;2023-03-16T05:13:39;101405.50;;;6.16;71.82
36222;BME280;22266;52.340;4.962;2023-03-16T05:16:05;101404.34;;;6.19;71.90
36222;BME280;22266;52.340;4.962;2023-03-16T05:18:36;101403.03;;;6.23;71.88
36222;BME280;22266;52.340;4.962;2023-03-16T05:21:03;101399.41;;;6.24;72.28
36222;BME280;22266;52.340;4.962;2023-03-16T05:23:41;101404.13;;;6.12;72.68
36222;BME280;22266;52.340;4.962;2023-03-16T05:26:08;101399.84;;;6.19;72.45
36222;BME280;22266;52.340;4.962;2023-03-16T05:28:36;101392.97;;;6.17;73.04
36222;BME280;22266;52.340;4.962;2023-03-16T05:31:05;101397.16;;;6.19;72.62
36222;BME280;22266;52.340;4.962;2023-03-16T05:33:40;101390.44;;;6.15;72.86
36222;BME280;22266;52.340;4.962;2023-03-16T05:36:10;101386.25;;;6.13;73.03
36222;BME280;22266;52.340;4.962;2023-03-16T05:38:38;101383.28;;;6.16;73.28
36222;BME280;22266;52.340;4.962;2023-03-16T05:41:08;101374.41;;;6.15;73.48
36222;BME280;22266;52.340;4.962;2023-03-16T05:43:58;101374.03;;;6.10;74.00
36222;BME280;22266;52.340;4.962;2023-03-16T05:46:33;101370.53;;;6.10;74.04
36222;BME280;22266;52.340;4.962;2023-03-16T05:49:03;101369.22;;;6.14;73.78
36222;BME280;22266;52.340;4.962;2023-03-16T05:51:29;101366.47;;;6.06;73.89
36222;BME280;22266;52.340;4.962;2023-03-16T05:53:59;101358.66;;;5.94;74.09
36222;BME280;22266;52.340;4.962;2023-03-16T05:56:40;101361.34;;;5.94;74.13
36222;BME280;22266;52.340;4.962;2023-03-16T05:59:07;101363.88;;;5.96;74.22
36222;BME280;22266;52.340;4.962;2023-03-16T06:01:34;101363.41;;;6.01;75.03
36222;BME280;22266;52.340;4.962;2023-03-16T06:04:01;101363.16;;;5.94;74.62
36222;BME280;22266;52.340;4.962;2023-03-16T06:06:32;101358.09;;;5.91;74.90
36222;BME280;22266;52.340;4.962;2023-03-16T06:09:05;101343.34;;;5.97;75.01
36222;BME280;22266;52.340;4.962;2023-03-16T06:11:32;101357.31;;;6.08;74.86
36222;BME280;22266;52.340;4.962;2023-03-16T06:13:59;101363.19;;;6.12;74.72
36222;BME280;22266;52.340;4.962;2023-03-16T06:16:27;101359.28;;;6.06;74.88
36222;BME280;22266;52.340;4.962;2023-03-16T06:18:54;101353.09;;;6.06;74.76
36222;BME280;22266;52.340;4.962;2023-03-16T06:21:25;101358.38;;;5.98;75.17
36222;BME280;22266;52.340;4.962;2023-03-16T06:23:54;101354.38;;;5.84;75.47
36222;BME280;22266;52.340;4.962;2023-03-16T06:26:21;101357.25;;;5.90;76.10
36222;BME280;22266;52.340;4.962;2023-03-16T06:28:48;101357.41;;;5.89;75.83
36222;BME280;22266;52.340;4.962;2023-03-16T06:31:15;101350.81;;;5.93;75.73
36222;BME280;22266;52.340;4.962;2023-03-16T06:33:43;101353.19;;;5.96;75.76
36222;BME280;22266;52.340;4.962;2023-03-16T06:36:10;101343.06;;;5.90;75.40
36222;BME280;22266;52.340;4.962;2023-03-16T06:38:41;101355.88;;;5.86;76.23
36222;BME280;22266;52.340;4.962;2023-03-16T06:41:23;101338.47;;;5.82;76.34
36222;BME280;22266;52.340;4.962;2023-03-16T06:43:50;101322.31;;;5.84;76.35
36222;BME280;22266;52.340;4.962;2023-03-16T06:46:16;101332.13;;;5.83;76.46
36222;BME280;22266;52.340;4.962;2023-03-16T06:48:43;101331.09;;;5.94;76.05
36222;BME280;22266;52.340;4.962;2023-03-16T06:51:09;101323.47;;;5.99;75.83
36222;BME280;22266;52.340;4.962;2023-03-16T06:53:36;101326.84;;;6.01;76.13
36222;BME280;22266;52.340;4.962;2023-03-16T06:56:02;101317.69;;;6.04;75.73
36222;BME280;22266;52.340;4.962;2023-03-16T06:58:33;101325.53;;;6.05;75.66
36222;BME280;22266;52.340;4.962;2023-03-16T07:01:02;101327.38;;;6.05;75.62
36222;BME280;22266;52.340;4.962;2023-03-16T07:03:29;101327.59;;;6.11;75.21
36222;BME280;22266;52.340;4.962;2023-03-16T07:06:02;101329.81;;;6.16;74.65
36222;BME280;22266;52.340;4.962;2023-03-16T07:08:29;101337.38;;;6.21;74.87
36222;BME280;22266;52.340;4.962;2023-03-16T07:10:56;101321.28;;;6.12;73.68
36222;BME280;22266;52.340;4.962;2023-03-16T07:13:23;101319.19;;;6.06;73.74
36222;BME280;22266;52.340;4.962;2023-03-16T07:15:50;101323.78;;;6.14;73.26
36222;BME280;22266;52.340;4.962;2023-03-16T07:18:23;101319.56;;;6.11;73.73
36222;BME280;22266;52.340;4.962;2023-03-16T07:20:53;101317.59;;;6.13;73.34
36222;BME280;22266;52.340;4.962;2023-03-16T07:23:22;101321.19;;;6.22;72.94
36222;BME280;22266;52.340;4.962;2023-03-16T07:25:51;101318.66;;;6.21;73.14
36222;BME280;22266;52.340;4.962;2023-03-16T07:28:19;101325.38;;;6.25;72.18
36222;BME280;22266;52.340;4.962;2023-03-16T07:30:46;101326.81;;;6.19;73.16
36222;BME280;22266;52.340;4.962;2023-03-16T07:33:32;101314.47;;;6.18;73.03
36222;BME280;22266;52.340;4.962;2023-03-16T07:36:01;101310.34;;;6.06;73.44
36222;BME280;22266;52.340;4.962;2023-03-16T07:38:36;101319.50;;;6.03;74.13
36222;BME280;22266;52.340;4.962;2023-03-16T07:41:03;101325.09;;;6.10;74.44
36222;BME280;22266;52.340;4.962;2023-03-16T07:43:32;101329.06;;;6.06;74.45
36222;BME280;22266;52.340;4.962;2023-03-16T07:45:59;101309.50;;;6.05;74.38
36222;BME280;22266;52.340;4.962;2023-03-16T07:48:27;101317.38;;;6.07;74.88
36222;BME280;22266;52.340;4.962;2023-03-16T07:50:58;101331.13;;;6.12;74.41
36222;BME280;22266;52.340;4.962;2023-03-16T07:53:25;101319.91;;;6.08;74.46
36222;BME280;22266;52.340;4.962;2023-03-16T07:56:07;101326.34;;;6.24;74.10
36222;BME280;22266;52.340;4.962;2023-03-16T07:58:37;101308.19;;;6.27;74.04
36222;BME280;22266;52.340;4.962;2023-03-16T08:01:03;101310.25;;;6.33;73.43
36222;BME280;22266;52.340;4.962;2023-03-16T08:03:30;101321.69;;;6.43;73.46
36222;BME280;22266;52.340;4.962;2023-03-16T08:05:57;101316.78;;;6.39;73.05
36222;BME280;22266;52.340;4.962;2023-03-16T08:08:25;101311.63;;;6.37;73.11
36222;BME280;22266;52.340;4.962;2023-03-16T08:10:52;101305.63;;;6.43;72.80
36222;BME280;22266;52.340;4.962;2023-03-16T08:13:26;101315.03;;;6.48;72.88
36222;BME280;22266;52.340;4.962;2023-03-16T08:15:53;101304.31;;;6.48;72.85
36222;BME280;22266;52.340;4.962;2023-03-16T08:18:33;101308.75;;;6.57;72.44
36222;BME280;22266;52.340;4.962;2023-03-16T08:21:00;101320.00;;;6.60;72.69
36222;BME280;22266;52.340;4.962;2023-03-16T08:23:26;101318.41;;;6.50;72.23
36222;BME280;22266;52.340;4.962;2023-03-16T08:25:56;101326.56;;;6.48;72.48
36222;BME280;22266;52.340;4.962;2023-03-16T08:28:23;101330.81;;;6.59;72.20
36222;BME280;22266;52.340;4.962;2023-03-16T08:30:53;101331.59;;;6.69;71.92
36222;BME280;22266;52.340;4.962;2023-03-16T08:33:45;101324.69;;;6.66;71.90
36222;BME280;22266;52.340;4.962;2023-03-16T08:36:16;101318.88;;;6.71;70.81
36222;BME280;22266;52.340;4.962;2023-03-16T08:38:46;101326.13;;;6.79;71.02
36222;BME280;22266;52.340;4.962;2023-03-16T08:41:34;101311.94;;;6.86;70.67
36222;BME280;22266;52.340;4.962;2023-03-16T08:44:05;101311.25;;;6.84;70.49
36222;BME280;22266;52.340;4.962;2023-03-16T08:46:33;101311.78;;;6.88;70.45
36222;BME280;22266;52.340;4.962;2023-03-16T08:49:00;101308.56;;;6.84;70.23
36222;BME280;22266;52.340;4.962;2023-03-16T08:51:28;101296.56;;;6.88;70.08
36222;BME280;22266;52.340;4.962;2023-03-16T08:53:54;101297.59;;;6.96;69.55
36222;BME280;22266;52.340;4.962;2023-03-16T08:56:21;101297.28;;;6.99;69.83
36222;BME280;22266;52.340;4.962;2023-03-16T08:58:48;101302.13;;;6.95;69.48
36222;BME280;22266;52.340;4.962;2023-03-16T09:01:18;101298.13;;;6.99;69.68
36222;BME280;22266;52.340;4.962;2023-03-16T09:03:45;101298.63;;;6.94;69.08
36222;BME280;22266;52.340;4.962;2023-03-16T09:06:14;101295.75;;;6.96;69.30
36222;BME280;22266;52.340;4.962;2023-03-16T09:08:41;101291.47;;;7.03;68.92
36222;BME280;22266;52.340;4.962;2023-03-16T09:11:14;101293.63;;;7.00;68.68
36222;BME280;22266;52.340;4.962;2023-03-16T09:13:42;101299.13;;;6.98;68.12
36222;BME280;22266;52.340;4.962;2023-03-16T09:16:11;101294.13;;;7.03;67.94
36222;BME280;22266;52.340;4.962;2023-03-16T09:18:38;101287.81;;;7.12;68.10
36222;BME280;22266;52.340;4.962;2023-03-16T09:21:06;101286.19;;;7.19;67.13
36222;BME280;22266;52.340;4.962;2023-03-16T09:23:34;101291.84;;;7.16;67.41
36222;BME280;22266;52.340;4.962;2023-03-16T09:26:04;101285.00;;;7.14;67.56
36222;BME280;22266;52.340;4.962;2023-03-16T09:28:34;101272.44;;;7.14;67.19
36222;BME280;22266;52.340;4.962;2023-03-16T09:31:01;101282.16;;;7.15;67.02
36222;BME280;22266;52.340;4.962;2023-03-16T09:33:29;101275.19;;;7.31;67.04
36222;BME280;22266;52.340;4.962;2023-03-16T09:35:57;101274.34;;;7.30;66.79
36222;BME280;22266;52.340;4.962;2023-03-16T09:38:24;101286.41;;;7.34;66.50
36222;BME280;22266;52.340;4.962;2023-03-16T09:41:09;101281.91;;;7.43;66.53
36222;BME280;22266;52.340;4.962;2023-03-16T09:46:31;101276.63;;;7.67;65.91
36222;BME280;22266;52.340;4.962;2023-03-16T09:49:01;101275.47;;;7.86;65.69
36222;BME280;22266;52.340;4.962;2023-03-16T09:54:09;101266.25;;;8.05;64.50
36222;BME280;22266;52.340;4.962;2023-03-16T09:56:41;101262.72;;;8.29;63.56
36222;BME280;22266;52.340;4.962;2023-03-16T09:59:13;101270.28;;;8.42;62.80
36222;BME280;22266;52.340;4.962;2023-03-16T10:02:05;101264.59;;;8.45;61.94
36222;BME280;22266;52.340;4.962;2023-03-16T10:04:51;101262.44;;;8.40;61.73
36222;BME280;22266;52.340;4.962;2023-03-16T10:13:46;101258.50;;;8.76;60.11
36222;BME280;22266;52.340;4.962;2023-03-16T10:16:17;101253.59;;;8.87;60.77
36222;BME280;22266;52.340;4.962;2023-03-16T10:18:48;101255.22;;;9.05;60.64
36222;BME280;22266;52.340;4.962;2023-03-16T10:21:17;101254.50;;;9.11;60.22
36222;BME280;22266;52.340;4.962;2023-03-16T10:23:46;101248.28;;;9.10;60.30
36222;BME280;22266;52.340;4.962;2023-03-16T10:26:37;101256.50;;;9.17;59.90
36222;BME280;22266;52.340;4.962;2023-03-16T10:29:12;101245.94;;;9.15;59.94
36222;BME280;22266;52.340;4.962;2023-03-16T10:31:41;101251.72;;;9.27;59.94
36222;BME280;22266;52.340;4.962;2023-03-16T10:34:08;101249.97;;;9.43;59.90
36222;BME280;22266;52.340;4.962;2023-03-16T10:36:38;101243.09;;;9.48;59.58
36222;BME280;22266;52.340;4.962;2023-03-16T10:39:10;101240.34;;;9.56;60.10
36222;BME280;22266;52.340;4.962;2023-03-16T10:41:39;101231.75;;;9.61;59.62
36222;BME280;22266;52.340;4.962;2023-03-16T10:46:49;101220.44;;;9.65;59.33
36222;BME280;22266;52.340;4.962;2023-03-16T10:51:55;101221.53;;;9.56;58.33
36222;BME280;22266;52.340;4.962;2023-03-16T10:54:31;101214.69;;;9.46;58.76
36222;BME280;22266;52.340;4.962;2023-03-16T10:56:58;101219.72;;;9.49;58.65
36222;BME280;22266;52.340;4.962;2023-03-16T10:59:35;101207.47;;;9.46;58.85
36222;BME280;22266;52.340;4.962;2023-03-16T11:02:16;101207.28;;;9.48;58.97
36222;BME280;22266;52.340;4.962;2023-03-16T11:04:45;101212.66;;;9.25;59.01
36222;BME280;22266;52.340;4.962;2023-03-16T11:07:20;101204.16;;;9.13;59.42
36222;BME280;22266;52.340;4.962;2023-03-16T11:09:53;101204.78;;;9.15;59.48
36222;BME280;22266;52.340;4.962;2023-03-16T11:12:26;101198.00;;;9.27;59.80
36222;BME280;22266;52.340;4.962;2023-03-16T11:14:54;101191.47;;;9.30;59.27
36222;BME280;22266;52.340;4.962;2023-03-16T11:17:32;101180.00;;;9.36;59.19
36222;BME280;22266;52.340;4.962;2023-03-16T11:20:04;101181.38;;;9.32;58.82
36222;BME280;22266;52.340;4.962;2023-03-16T11:22:38;101185.00;;;9.39;58.82
36222;BME280;22266;52.340;4.962;2023-03-16T11:27:47;101179.38;;;9.57;58.71
36222;BME280;22266;52.340;4.962;2023-03-16T11:30:27;101179.59;;;9.70;58.20
36222;BME280;22266;52.340;4.962;2023-03-16T11:32:54;101178.91;;;9.68;58.35
36222;BME280;22266;52.340;4.962;2023-03-16T11:38:50;101190.97;;;9.72;57.77
36222;BME280;22266;52.340;4.962;2023-03-16T11:41:27;101185.50;;;9.65;57.40
36222;BME280;22266;52.340;4.962;2023-03-16T11:44:05;101190.97;;;9.72;57.48
36222;BME280;22266;52.340;4.962;2023-03-16T11:46:52;101180.94;;;9.89;57.77
36222;BME280;22266;52.340;4.962;2023-03-16T11:49:33;101178.84;;;9.99;57.15
36222;BME280;22266;52.340;4.962;2023-03-16T11:52:20;101183.25;;;9.92;56.69
36222;BME280;22266;52.340;4.962;2023-03-16T12:06:21;101172.00;;;10.11;57.04
36222;BME280;22266;52.340;4.962;2023-03-16T12:09:07;101166.34;;;10.06;56.78
36222;BME280;22266;52.340;4.962;2023-03-16T12:11:53;101157.06;;;10.09;56.46
36222;BME280;22266;52.340;4.962;2023-03-16T12:14:26;101157.72;;;10.11;56.37
36222;BME280;22266;52.340;4.962;2023-03-16T12:16:59;101159.97;;;10.22;56.68
36222;BME280;22266;52.340;4.962;2023-03-16T12:19:57;101151.56;;;10.25;56.40
36222;BME280;22266;52.340;4.962;2023-03-16T12:22:40;101144.44;;;10.24;55.68
36222;BME280;22266;52.340;4.962;2023-03-16T12:25:19;101149.31;;;10.29;55.69
36222;BME280;22266;52.340;4.962;2023-03-16T12:27:50;101144.22;;;10.34;55.45
36222;BME280;22266;52.340;4.962;2023-03-16T12:44:42;101095.72;;;11.36;52.98
36222;BME280;22266;52.340;4.962;2023-03-16T12:47:27;101094.38;;;11.47;52.80
36222;BME280;22266;52.340;4.962;2023-03-16T12:50:07;101075.38;;;11.61;52.08
36222;BME280;22266;52.340;4.962;2023-03-16T12:52:47;101073.88;;;11.52;52.19
36222;BME280;22266;52.340;4.962;2023-03-16T12:55:19;101069.66;;;11.43;51.85
36222;BME280;22266;52.340;4.962;2023-03-16T12:57:48;101071.94;;;11.46;51.94
36222;BME280;22266;52.340;4.962;2023-03-16T13:00:17;101069.81;;;11.42;51.45
36222;BME280;22266;52.340;4.962;2023-03-16T13:02:53;101070.03;;;11.40;51.67
36222;BME280;22266;52.340;4.962;2023-03-16T13:05:34;101063.16;;;11.59;51.55
36222;BME280;22266;52.340;4.962;2023-03-16T13:08:12;101067.28;;;11.61;51.20
36222;BME280;22266;52.340;4.962;2023-03-16T13:10:40;101059.28;;;11.68;50.94
36222;BME280;22266;52.340;4.962;2023-03-16T13:13:12;101065.28;;;11.70;51.42
36222;BME280;22266;52.340;4.962;2023-03-16T13:15:44;101065.28;;;11.70;51.05
36222;BME280;22266;52.340;4.962;2023-03-16T13:28:43;101044.38;;;11.72;50.00
36222;BME280;22266;52.340;4.962;2023-03-16T13:31:27;101040.09;;;11.56;49.43
36222;BME280;22266;52.340;4.962;2023-03-16T13:34:02;101054.84;;;11.60;49.25
36222;BME280;22266;52.340;4.962;2023-03-16T13:36:31;101036.88;;;11.68;49.05
36222;BME280;22266;52.340;4.962;2023-03-16T13:41:32;101034.34;;;11.66;48.41
36222;BME280;22266;52.340;4.962;2023-03-16T13:43:59;101032.25;;;11.90;48.98
36222;BME280;22266;52.340;4.962;2023-03-16T13:46:27;101030.50;;;12.10;48.90
36222;BME280;22266;52.340;4.962;2023-03-16T13:48:57;101032.38;;;12.09;48.08
36222;BME280;22266;52.340;4.962;2023-03-16T13:51:26;101037.16;;;12.07;47.95
36222;BME280;22266;52.340;4.962;2023-03-16T13:53:56;101029.63;;;11.96;47.01
36222;BME280;22266;52.340;4.962;2023-03-16T13:56:25;101036.91;;;12.02;47.49
36222;BME280;22266;52.340;4.962;2023-03-16T13:58:55;101051.25;;;12.09;47.03
36222;BME280;22266;52.340;4.962;2023-03-16T14:01:29;101029.06;;;12.07;47.63
36222;BME280;22266;52.340;4.962;2023-03-16T14:04:01;101026.38;;;12.14;47.04
36222;BME280;22266;52.340;4.962;2023-03-16T14:06:34;101024.31;;;12.16;47.02
36222;BME280;22266;52.340;4.962;2023-03-16T14:09:04;101009.56;;;12.19;46.82
36222;BME280;22266;52.340;4.962;2023-03-16T14:11:31;101012.72;;;12.22;46.71
36222;BME280;22266;52.340;4.962;2023-03-16T14:13:59;101013.78;;;12.28;46.85
36222;BME280;22266;52.340;4.962;2023-03-16T14:16:27;100999.03;;;12.30;46.78
36222;BME280;22266;52.340;4.962;2023-03-16T14:19:05;100999.66;;;12.26;46.30
36222;BME280;22266;52.340;4.962;2023-03-16T14:21:34;100999.81;;;12.18;46.38
36222;BME280;22266;52.340;4.962;2023-03-16T14:24:05;100996.53;;;12.22;46.80